sensor_id;sensor_type;location;lat;lon;timestamp;temperature;humidity
26342;DHT22;14054;50.108;8.640;2022-07-29T00:00:59;21.50;76.50
26342;DHT22;14054;50.108;8.640;2022-07-29T00:03:25;21.50;77.00
26342;DHT22;14054;50.108;8.640;2022-07-29T00:05:50;21.60;77.70
26342;DHT22;14054;50.108;8.640;2022-07-29T00:08:18;21.60;76.40
26342;DHT22;14054;50.108;8.640;2022-07-29T00:10:44;21.60;75.90
26342;DHT22;14054;50.108;8.640;2022-07-29T00:13:09;21.60;75.70
26342;DHT22;14054;50.108;8.640;2022-07-29T00:15:35;21.60;75.90
26342;DHT22;14054;50.108;8.640;2022-07-29T00:18:00;21.50;75.80
26342;DHT22;14054;50.108;8.640;2022-07-29T00:20:26;21.50;76.30
26342;DHT22;14054;50.108;8.640;2022-07-29T00:22:52;21.50;76.20
26342;DHT22;14054;50.108;8.640;2022-07-29T00:25:18;21.50;76.60
26342;DHT22;14054;50.108;8.640;2022-07-29T00:27:43;21.50;77.50
26342;DHT22;14054;50.108;8.640;2022-07-29T00:30:11;21.50;76.40
26342;DHT22;14054;50.108;8.640;2022-07-29T00:32:36;21.50;77.50
26342;DHT22;14054;50.108;8.640;2022-07-29T00:35:02;21.40;76.50
26342;DHT22;14054;50.108;8.640;2022-07-29T00:37:46;21.40;76.60
26342;DHT22;14054;50.108;8.640;2022-07-29T00:40:12;21.40;76.50
26342;DHT22;14054;50.108;8.640;2022-07-29T00:42:48;21.40;76.40
26342;DHT22;14054;50.108;8.640;2022-07-29T00:45:15;21.40;76.60
26342;DHT22;14054;50.108;8.640;2022-07-29T00:47:41;21.40;76.70
26342;DHT22;14054;50.108;8.640;2022-07-29T00:50:08;21.40;76.30
26342;DHT22;14054;50.108;8.640;2022-07-29T00:52:36;21.50;76.00
26342;DHT22;14054;50.108;8.640;2022-07-29T00:55:03;21.50;75.60
26342;DHT22;14054;50.108;8.640;2022-07-29T00:57:29;21.50;75.10
26342;DHT22;14054;50.108;8.640;2022-07-29T00:59:56;21.60;76.50
26342;DHT22;14054;50.108;8.640;2022-07-29T01:02:21;21.60;75.90
26342;DHT22;14054;50.108;8.640;2022-07-29T01:04:48;21.60;75.40
26342;DHT22;14054;50.108;8.640;2022-07-29T01:07:14;21.60;75.70
26342;DHT22;14054;50.108;8.640;2022-07-29T01:09:40;21.60;75.10
26342;DHT22;14054;50.108;8.640;2022-07-29T01:12:07;21.60;75.20
26342;DHT22;14054;50.108;8.640;2022-07-29T01:14:34;21.60;75.40
26342;DHT22;14054;50.108;8.640;2022-07-29T01:17:10;21.70;75.10
26342;DHT22;14054;50.108;8.640;2022-07-29T01:19:57;21.60;75.50
26342;DHT22;14054;50.108;8.640;2022-07-29T01:22:53;21.60;75.20
26342;DHT22;14054;50.108;8.640;2022-07-29T01:28:38;21.70;74.40
26342;DHT22;14054;50.108;8.640;2022-07-29T01:31:06;21.70;74.20
26342;DHT22;14054;50.108;8.640;2022-07-29T01:33:43;21.80;73.40
26342;DHT22;14054;50.108;8.640;2022-07-29T01:36:25;21.80;73.90
26342;DHT22;14054;50.108;8.640;2022-07-29T01:39:19;21.70;74.10
26342;DHT22;14054;50.108;8.640;2022-07-29T01:41:57;21.80;73.90
26342;DHT22;14054;50.108;8.640;2022-07-29T01:44:32;21.70;73.50
26342;DHT22;14054;50.108;8.640;2022-07-29T01:47:05;21.80;73.60
26342;DHT22;14054;50.108;8.640;2022-07-29T01:49:36;21.80;73.60
26342;DHT22;14054;50.108;8.640;2022-07-29T01:52:08;21.80;74.10
26342;DHT22;14054;50.108;8.640;2022-07-29T01:54:43;21.70;74.40
26342;DHT22;14054;50.108;8.640;2022-07-29T01:57:14;21.70;74.40
26342;DHT22;14054;50.108;8.640;2022-07-29T01:59:41;21.70;74.80
26342;DHT22;14054;50.108;8.640;2022-07-29T02:02:09;21.70;76.00
26342;DHT22;14054;50.108;8.640;2022-07-29T02:04:37;21.70;75.40
26342;DHT22;14054;50.108;8.640;2022-07-29T02:07:05;21.70;75.70
26342;DHT22;14054;50.108;8.640;2022-07-29T02:09:34;21.60;75.90
26342;DHT22;14054;50.108;8.640;2022-07-29T02:12:01;21.60;76.50
26342;DHT22;14054;50.108;8.640;2022-07-29T02:14:29;21.50;76.80
26342;DHT22;14054;50.108;8.640;2022-07-29T02:16:59;21.50;77.60
26342;DHT22;14054;50.108;8.640;2022-07-29T02:19:27;21.40;78.50
26342;DHT22;14054;50.108;8.640;2022-07-29T02:21:53;21.40;79.10
26342;DHT22;14054;50.108;8.640;2022-07-29T02:24:21;21.30;80.00
26342;DHT22;14054;50.108;8.640;2022-07-29T02:26:49;21.30;80.30
26342;DHT22;14054;50.108;8.640;2022-07-29T02:29:16;21.20;81.10
26342;DHT22;14054;50.108;8.640;2022-07-29T02:31:47;21.10;81.20
26342;DHT22;14054;50.108;8.640;2022-07-29T02:34:15;21.10;82.00
26342;DHT22;14054;50.108;8.640;2022-07-29T02:36:43;21.10;82.70
26342;DHT22;14054;50.108;8.640;2022-07-29T02:39:10;21.10;83.30
26342;DHT22;14054;50.108;8.640;2022-07-29T02:41:44;21.10;83.80
26342;DHT22;14054;50.108;8.640;2022-07-29T02:44:18;21.00;84.70
26342;DHT22;14054;50.108;8.640;2022-07-29T02:47:10;20.90;95.60
26342;DHT22;14054;50.108;8.640;2022-07-29T02:49:42;21.20;99.10
26342;DHT22;14054;50.108;8.640;2022-07-29T02:52:26;20.90;97.20
26342;DHT22;14054;50.108;8.640;2022-07-29T02:54:58;21.20;98.90
26342;DHT22;14054;50.108;8.640;2022-07-29T02:57:42;21.20;94.00
26342;DHT22;14054;50.108;8.640;2022-07-29T03:00:09;21.10;98.60
26342;DHT22;14054;50.108;8.640;2022-07-29T03:02:43;21.00;99.40
26342;DHT22;14054;50.108;8.640;2022-07-29T03:05:14;20.80;99.00
26342;DHT22;14054;50.108;8.640;2022-07-29T03:07:43;21.00;99.90
26342;DHT22;14054;50.108;8.640;2022-07-29T03:10:10;20.70;99.90
26342;DHT22;14054;50.108;8.640;2022-07-29T03:12:37;20.60;99.90
26342;DHT22;14054;50.108;8.640;2022-07-29T03:19:58;20.50;91.40
26342;DHT22;14054;50.108;8.640;2022-07-29T03:22:24;20.40;92.10
26342;DHT22;14054;50.108;8.640;2022-07-29T03:24:50;20.40;92.80
26342;DHT22;14054;50.108;8.640;2022-07-29T03:27:15;20.30;93.30
26342;DHT22;14054;50.108;8.640;2022-07-29T03:29:41;20.30;93.80
26342;DHT22;14054;50.108;8.640;2022-07-29T03:32:06;20.30;94.50
26342;DHT22;14054;50.108;8.640;2022-07-29T03:34:32;20.20;95.40
26342;DHT22;14054;50.108;8.640;2022-07-29T03:36:58;20.10;96.20
26342;DHT22;14054;50.108;8.640;2022-07-29T03:39:27;20.10;97.50
26342;DHT22;14054;50.108;8.640;2022-07-29T03:41:56;20.20;99.90
26342;DHT22;14054;50.108;8.640;2022-07-29T03:44:22;19.70;99.90
26342;DHT22;14054;50.108;8.640;2022-07-29T03:46:50;19.90;99.90
26342;DHT22;14054;50.108;8.640;2022-07-29T03:49:18;20.60;99.90
26342;DHT22;14054;50.108;8.640;2022-07-29T03:51:45;19.90;99.90
26342;DHT22;14054;50.108;8.640;2022-07-29T03:54:11;19.80;99.90
26342;DHT22;14054;50.108;8.640;2022-07-29T03:56:42;19.80;99.90
26342;DHT22;14054;50.108;8.640;2022-07-29T03:59:11;19.90;99.90
26342;DHT22;14054;50.108;8.640;2022-07-29T04:01:38;18.30;99.90
26342;DHT22;14054;50.108;8.640;2022-07-29T04:04:04;19.60;99.90
26342;DHT22;14054;50.108;8.640;2022-07-29T04:06:38;19.50;99.90
26342;DHT22;14054;50.108;8.640;2022-07-29T04:09:04;19.40;99.90
26342;DHT22;14054;50.108;8.640;2022-07-29T04:11:29;19.40;99.90
26342;DHT22;14054;50.108;8.640;2022-07-29T04:13:55;19.40;99.90
26342;DHT22;14054;50.108;8.640;2022-07-29T04:16:20;19.40;99.90
26342;DHT22;14054;50.108;8.640;2022-07-29T04:18:46;19.50;99.90
26342;DHT22;14054;50.108;8.640;2022-07-29T04:21:11;19.50;99.90
26342;DHT22;14054;50.108;8.640;2022-07-29T04:23:37;19.40;99.90
26342;DHT22;14054;50.108;8.640;2022-07-29T04:26:02;19.40;99.90
26342;DHT22;14054;50.108;8.640;2022-07-29T04:28:28;19.40;99.90
26342;DHT22;14054;50.108;8.640;2022-07-29T04:30:53;19.40;99.90
26342;DHT22;14054;50.108;8.640;2022-07-29T04:33:19;19.40;99.90
26342;DHT22;14054;50.108;8.640;2022-07-29T04:35:44;19.50;99.90
26342;DHT22;14054;50.108;8.640;2022-07-29T04:38:10;19.30;99.90
26342;DHT22;14054;50.108;8.640;2022-07-29T04:40:36;19.30;99.90
26342;DHT22;14054;50.108;8.640;2022-07-29T04:43:01;19.40;99.90
26342;DHT22;14054;50.108;8.640;2022-07-29T04:45:27;19.50;99.90
26342;DHT22;14054;50.108;8.640;2022-07-29T04:47:53;19.40;99.90
26342;DHT22;14054;50.108;8.640;2022-07-29T04:50:19;19.40;99.90
26342;DHT22;14054;50.108;8.640;2022-07-29T04:52:44;19.40;99.90
26342;DHT22;14054;50.108;8.640;2022-07-29T04:55:10;19.40;99.90
26342;DHT22;14054;50.108;8.640;2022-07-29T04:57:35;19.40;99.90
26342;DHT22;14054;50.108;8.640;2022-07-29T05:00:02;19.40;99.90
26342;DHT22;14054;50.108;8.640;2022-07-29T05:02:27;19.40;99.90
26342;DHT22;14054;50.108;8.640;2022-07-29T05:04:53;19.30;99.90
26342;DHT22;14054;50.108;8.640;2022-07-29T05:07:18;19.30;99.90
26342;DHT22;14054;50.108;8.640;2022-07-29T05:09:44;19.40;99.90
26342;DHT22;14054;50.108;8.640;2022-07-29T05:12:09;19.40;99.90
26342;DHT22;14054;50.108;8.640;2022-07-29T05:14:35;19.40;99.90
26342;DHT22;14054;50.108;8.640;2022-07-29T05:17:00;19.50;99.90
26342;DHT22;14054;50.108;8.640;2022-07-29T05:19:26;19.40;99.90
26342;DHT22;14054;50.108;8.640;2022-07-29T05:21:51;19.50;99.90
26342;DHT22;14054;50.108;8.640;2022-07-29T05:24:17;19.40;99.90
26342;DHT22;14054;50.108;8.640;2022-07-29T05:26:42;19.30;99.90
26342;DHT22;14054;50.108;8.640;2022-07-29T05:29:08;19.40;99.90
26342;DHT22;14054;50.108;8.640;2022-07-29T05:31:34;19.40;99.90
26342;DHT22;14054;50.108;8.640;2022-07-29T05:33:59;19.50;99.90
26342;DHT22;14054;50.108;8.640;2022-07-29T05:36:25;19.60;99.90
26342;DHT22;14054;50.108;8.640;2022-07-29T05:38:50;19.60;99.90
26342;DHT22;14054;50.108;8.640;2022-07-29T05:41:17;19.70;99.90
26342;DHT22;14054;50.108;8.640;2022-07-29T05:43:43;19.80;99.90
26342;DHT22;14054;50.108;8.640;2022-07-29T05:46:09;19.70;99.90
26342;DHT22;14054;50.108;8.640;2022-07-29T05:48:34;19.80;99.90
26342;DHT22;14054;50.108;8.640;2022-07-29T05:51:00;19.90;99.90
26342;DHT22;14054;50.108;8.640;2022-07-29T05:53:25;20.00;99.90
26342;DHT22;14054;50.108;8.640;2022-07-29T05:55:51;20.00;99.90
26342;DHT22;14054;50.108;8.640;2022-07-29T05:58:17;20.00;99.90
26342;DHT22;14054;50.108;8.640;2022-07-29T06:00:43;20.00;99.90
26342;DHT22;14054;50.108;8.640;2022-07-29T06:03:09;20.20;99.90
26342;DHT22;14054;50.108;8.640;2022-07-29T06:05:34;20.20;99.90
26342;DHT22;14054;50.108;8.640;2022-07-29T06:08:00;20.30;99.90
26342;DHT22;14054;50.108;8.640;2022-07-29T06:10:25;20.30;99.90
26342;DHT22;14054;50.108;8.640;2022-07-29T06:12:52;20.50;99.90
26342;DHT22;14054;50.108;8.640;2022-07-29T06:15:17;20.50;99.90
26342;DHT22;14054;50.108;8.640;2022-07-29T06:17:43;20.50;99.90
26342;DHT22;14054;50.108;8.640;2022-07-29T06:20:09;20.60;99.90
26342;DHT22;14054;50.108;8.640;2022-07-29T06:22:35;20.60;99.90
26342;DHT22;14054;50.108;8.640;2022-07-29T06:25:01;20.70;99.90
26342;DHT22;14054;50.108;8.640;2022-07-29T06:27:27;20.80;99.90
26342;DHT22;14054;50.108;8.640;2022-07-29T06:29:52;20.90;99.90
26342;DHT22;14054;50.108;8.640;2022-07-29T06:32:18;20.90;99.90
26342;DHT22;14054;50.108;8.640;2022-07-29T06:34:44;20.80;99.40
26342;DHT22;14054;50.108;8.640;2022-07-29T06:37:09;21.00;99.30
26342;DHT22;14054;50.108;8.640;2022-07-29T06:39:35;21.10;99.40
26342;DHT22;14054;50.108;8.640;2022-07-29T06:42:03;21.20;98.80
26342;DHT22;14054;50.108;8.640;2022-07-29T06:44:28;21.30;98.90
26342;DHT22;14054;50.108;8.640;2022-07-29T06:46:55;21.40;98.80
26342;DHT22;14054;50.108;8.640;2022-07-29T06:49:20;21.50;98.40
26342;DHT22;14054;50.108;8.640;2022-07-29T06:51:46;21.70;98.00
26342;DHT22;14054;50.108;8.640;2022-07-29T06:54:11;21.80;97.90
26342;DHT22;14054;50.108;8.640;2022-07-29T06:56:37;21.90;97.60
26342;DHT22;14054;50.108;8.640;2022-07-29T06:59:04;22.00;97.10
26342;DHT22;14054;50.108;8.640;2022-07-29T07:01:29;22.10;97.10
26342;DHT22;14054;50.108;8.640;2022-07-29T07:03:55;22.10;96.50
26342;DHT22;14054;50.108;8.640;2022-07-29T07:06:21;22.20;96.10
26342;DHT22;14054;50.108;8.640;2022-07-29T07:08:46;22.10;95.30
26342;DHT22;14054;50.108;8.640;2022-07-29T07:11:12;22.10;95.30
26342;DHT22;14054;50.108;8.640;2022-07-29T07:13:37;22.20;95.40
26342;DHT22;14054;50.108;8.640;2022-07-29T07:16:03;22.50;94.70
26342;DHT22;14054;50.108;8.640;2022-07-29T07:18:29;22.70;94.80
26342;DHT22;14054;50.108;8.640;2022-07-29T07:20:56;22.90;94.10
26342;DHT22;14054;50.108;8.640;2022-07-29T07:23:22;23.00;93.70
26342;DHT22;14054;50.108;8.640;2022-07-29T07:25:47;23.20;93.10
26342;DHT22;14054;50.108;8.640;2022-07-29T07:28:13;23.30;92.90
26342;DHT22;14054;50.108;8.640;2022-07-29T07:30:39;23.40;92.80
26342;DHT22;14054;50.108;8.640;2022-07-29T07:33:05;23.60;92.30
26342;DHT22;14054;50.108;8.640;2022-07-29T07:35:30;23.70;91.60
26342;DHT22;14054;50.108;8.640;2022-07-29T07:37:56;23.90;91.00
26342;DHT22;14054;50.108;8.640;2022-07-29T07:40:21;23.90;90.80
26342;DHT22;14054;50.108;8.640;2022-07-29T07:42:47;24.00;91.00
26342;DHT22;14054;50.108;8.640;2022-07-29T07:45:13;24.10;90.80
26342;DHT22;14054;50.108;8.640;2022-07-29T07:47:39;24.20;90.60
26342;DHT22;14054;50.108;8.640;2022-07-29T07:50:07;24.50;90.50
26342;DHT22;14054;50.108;8.640;2022-07-29T07:52:32;24.50;89.50
26342;DHT22;14054;50.108;8.640;2022-07-29T07:54:59;24.40;90.00
26342;DHT22;14054;50.108;8.640;2022-07-29T07:57:24;24.40;90.00
26342;DHT22;14054;50.108;8.640;2022-07-29T07:59:50;24.40;89.80
26342;DHT22;14054;50.108;8.640;2022-07-29T08:02:15;24.60;89.30
26342;DHT22;14054;50.108;8.640;2022-07-29T08:04:41;24.90;86.40
26342;DHT22;14054;50.108;8.640;2022-07-29T08:07:07;24.80;85.70
26342;DHT22;14054;50.108;8.640;2022-07-29T08:09:34;25.00;85.60
26342;DHT22;14054;50.108;8.640;2022-07-29T08:12:00;25.00;83.90
26342;DHT22;14054;50.108;8.640;2022-07-29T08:14:29;25.20;83.30
26342;DHT22;14054;50.108;8.640;2022-07-29T08:16:55;25.20;82.90
26342;DHT22;14054;50.108;8.640;2022-07-29T08:19:20;25.20;83.10
26342;DHT22;14054;50.108;8.640;2022-07-29T08:21:46;25.40;81.70
26342;DHT22;14054;50.108;8.640;2022-07-29T08:24:11;25.50;81.40
26342;DHT22;14054;50.108;8.640;2022-07-29T08:26:55;25.70;80.00
26342;DHT22;14054;50.108;8.640;2022-07-29T08:29:21;25.90;79.80
26342;DHT22;14054;50.108;8.640;2022-07-29T08:31:46;26.50;94.50
26342;DHT22;14054;50.108;8.640;2022-07-29T08:34:12;26.10;97.10
26342;DHT22;14054;50.108;8.640;2022-07-29T08:36:37;26.00;90.50
26342;DHT22;14054;50.108;8.640;2022-07-29T08:39:04;25.80;91.20
26342;DHT22;14054;50.108;8.640;2022-07-29T08:41:29;25.80;92.20
26342;DHT22;14054;50.108;8.640;2022-07-29T08:43:55;25.80;92.80
26342;DHT22;14054;50.108;8.640;2022-07-29T08:46:21;26.00;93.00
26342;DHT22;14054;50.108;8.640;2022-07-29T08:48:47;25.90;91.80
26342;DHT22;14054;50.108;8.640;2022-07-29T08:51:16;26.40;90.50
26342;DHT22;14054;50.108;8.640;2022-07-29T08:53:43;26.60;90.60
26342;DHT22;14054;50.108;8.640;2022-07-29T08:56:12;26.90;82.90
26342;DHT22;14054;50.108;8.640;2022-07-29T08:58:39;26.70;78.10
26342;DHT22;14054;50.108;8.640;2022-07-29T09:01:06;26.90;78.60
26342;DHT22;14054;50.108;8.640;2022-07-29T09:03:34;26.70;78.20
26342;DHT22;14054;50.108;8.640;2022-07-29T09:06:02;26.80;77.80
26342;DHT22;14054;50.108;8.640;2022-07-29T09:08:28;27.10;78.20
26342;DHT22;14054;50.108;8.640;2022-07-29T09:10:54;26.80;77.90
26342;DHT22;14054;50.108;8.640;2022-07-29T09:13:21;27.00;77.90
26342;DHT22;14054;50.108;8.640;2022-07-29T09:15:53;27.10;77.40
26342;DHT22;14054;50.108;8.640;2022-07-29T09:18:38;27.20;76.70
26342;DHT22;14054;50.108;8.640;2022-07-29T09:21:08;26.90;76.80
26342;DHT22;14054;50.108;8.640;2022-07-29T09:24:07;27.30;77.70
26342;DHT22;14054;50.108;8.640;2022-07-29T09:26:39;27.30;77.30
26342;DHT22;14054;50.108;8.640;2022-07-29T09:29:09;27.50;77.70
26342;DHT22;14054;50.108;8.640;2022-07-29T09:31:39;27.40;76.60
26342;DHT22;14054;50.108;8.640;2022-07-29T09:34:06;27.40;76.80
26342;DHT22;14054;50.108;8.640;2022-07-29T09:36:45;27.80;76.70
26342;DHT22;14054;50.108;8.640;2022-07-29T09:39:11;28.20;74.80
26342;DHT22;14054;50.108;8.640;2022-07-29T09:41:51;28.30;75.10
26342;DHT22;14054;50.108;8.640;2022-07-29T09:44:20;28.10;74.90
26342;DHT22;14054;50.108;8.640;2022-07-29T09:46:57;27.80;76.10
26342;DHT22;14054;50.108;8.640;2022-07-29T09:49:24;27.70;77.70
26342;DHT22;14054;50.108;8.640;2022-07-29T09:52:19;28.00;77.20
26342;DHT22;14054;50.108;8.640;2022-07-29T09:54:45;28.10;75.90
26342;DHT22;14054;50.108;8.640;2022-07-29T09:57:23;27.80;76.60
26342;DHT22;14054;50.108;8.640;2022-07-29T10:00:17;27.70;78.10
26342;DHT22;14054;50.108;8.640;2022-07-29T10:02:44;27.90;77.40
26342;DHT22;14054;50.108;8.640;2022-07-29T10:05:18;27.80;78.30
26342;DHT22;14054;50.108;8.640;2022-07-29T10:07:53;27.80;78.50
26342;DHT22;14054;50.108;8.640;2022-07-29T10:10:27;27.60;77.40
26342;DHT22;14054;50.108;8.640;2022-07-29T10:12:59;27.40;78.30
26342;DHT22;14054;50.108;8.640;2022-07-29T10:15:27;27.60;79.10
26342;DHT22;14054;50.108;8.640;2022-07-29T10:17:54;27.60;78.30
26342;DHT22;14054;50.108;8.640;2022-07-29T10:20:21;27.70;78.10
26342;DHT22;14054;50.108;8.640;2022-07-29T10:22:48;28.00;77.50
26342;DHT22;14054;50.108;8.640;2022-07-29T10:25:15;28.70;75.80
26342;DHT22;14054;50.108;8.640;2022-07-29T10:27:41;28.60;74.70
26342;DHT22;14054;50.108;8.640;2022-07-29T10:30:08;28.60;75.00
26342;DHT22;14054;50.108;8.640;2022-07-29T10:33:05;28.80;74.30
26342;DHT22;14054;50.108;8.640;2022-07-29T10:35:44;28.80;74.00
26342;DHT22;14054;50.108;8.640;2022-07-29T10:44:17;28.80;74.20
26342;DHT22;14054;50.108;8.640;2022-07-29T10:46:43;29.20;74.10
26342;DHT22;14054;50.108;8.640;2022-07-29T10:52:08;29.50;72.80
26342;DHT22;14054;50.108;8.640;2022-07-29T10:54:43;29.80;72.20
26342;DHT22;14054;50.108;8.640;2022-07-29T10:57:30;30.70;78.90
26342;DHT22;14054;50.108;8.640;2022-07-29T11:05:17;30.80;68.90
26342;DHT22;14054;50.108;8.640;2022-07-29T11:10:38;31.10;67.90
26342;DHT22;14054;50.108;8.640;2022-07-29T11:13:03;30.90;66.80
26342;DHT22;14054;50.108;8.640;2022-07-29T11:15:55;29.80;67.50
26342;DHT22;14054;50.108;8.640;2022-07-29T11:18:21;30.20;70.60
26342;DHT22;14054;50.108;8.640;2022-07-29T11:20:50;31.20;69.20
26342;DHT22;14054;50.108;8.640;2022-07-29T11:29:06;34.30;59.80
26342;DHT22;14054;50.108;8.640;2022-07-29T11:31:45;34.20;58.80
26342;DHT22;14054;50.108;8.640;2022-07-29T11:34:31;32.70;59.70
26342;DHT22;14054;50.108;8.640;2022-07-29T11:39:43;35.00;57.70
26342;DHT22;14054;50.108;8.640;2022-07-29T11:45:03;34.30;65.10
26342;DHT22;14054;50.108;8.640;2022-07-29T11:47:32;34.20;65.00
26342;DHT22;14054;50.108;8.640;2022-07-29T11:50:00;33.60;63.90
26342;DHT22;14054;50.108;8.640;2022-07-29T11:52:33;34.50;62.60
26342;DHT22;14054;50.108;8.640;2022-07-29T11:55:01;34.60;60.60
26342;DHT22;14054;50.108;8.640;2022-07-29T11:57:28;34.60;59.70
26342;DHT22;14054;50.108;8.640;2022-07-29T12:02:21;36.30;51.70
26342;DHT22;14054;50.108;8.640;2022-07-29T12:04:53;36.70;50.20
26342;DHT22;14054;50.108;8.640;2022-07-29T12:07:29;37.00;48.50
26342;DHT22;14054;50.108;8.640;2022-07-29T12:09:55;37.00;49.30
26342;DHT22;14054;50.108;8.640;2022-07-29T12:12:21;37.00;49.30
26342;DHT22;14054;50.108;8.640;2022-07-29T12:14:46;36.00;48.20
26342;DHT22;14054;50.108;8.640;2022-07-29T12:17:26;35.60;49.70
26342;DHT22;14054;50.108;8.640;2022-07-29T12:19:53;35.70;50.60
26342;DHT22;14054;50.108;8.640;2022-07-29T12:22:29;36.50;49.30
26342;DHT22;14054;50.108;8.640;2022-07-29T12:25:01;36.90;48.50
26342;DHT22;14054;50.108;8.640;2022-07-29T12:27:28;36.30;47.60
26342;DHT22;14054;50.108;8.640;2022-07-29T12:29:58;36.00;49.10
26342;DHT22;14054;50.108;8.640;2022-07-29T12:32:41;37.30;48.10
26342;DHT22;14054;50.108;8.640;2022-07-29T12:35:09;37.70;46.50
26342;DHT22;14054;50.108;8.640;2022-07-29T12:37:36;38.40;45.90
26342;DHT22;14054;50.108;8.640;2022-07-29T12:40:04;37.60;45.80
26342;DHT22;14054;50.108;8.640;2022-07-29T12:42:30;37.30;45.60
26342;DHT22;14054;50.108;8.640;2022-07-29T12:44:55;37.50;45.70
26342;DHT22;14054;50.108;8.640;2022-07-29T12:47:21;37.80;45.50
26342;DHT22;14054;50.108;8.640;2022-07-29T12:49:48;37.90;44.90
26342;DHT22;14054;50.108;8.640;2022-07-29T12:52:32;38.30;45.10
26342;DHT22;14054;50.108;8.640;2022-07-29T12:54:58;38.90;43.10
26342;DHT22;14054;50.108;8.640;2022-07-29T12:57:24;39.10;42.40
26342;DHT22;14054;50.108;8.640;2022-07-29T13:00:04;38.90;43.20
26342;DHT22;14054;50.108;8.640;2022-07-29T13:02:33;39.20;41.90
26342;DHT22;14054;50.108;8.640;2022-07-29T13:04:59;38.60;42.50
26342;DHT22;14054;50.108;8.640;2022-07-29T13:07:28;40.20;41.10
26342;DHT22;14054;50.108;8.640;2022-07-29T13:09:55;40.30;40.90
26342;DHT22;14054;50.108;8.640;2022-07-29T13:12:34;38.60;42.30
26342;DHT22;14054;50.108;8.640;2022-07-29T13:14:59;38.40;43.00
26342;DHT22;14054;50.108;8.640;2022-07-29T13:17:26;38.60;42.00
26342;DHT22;14054;50.108;8.640;2022-07-29T13:20:07;37.90;43.70
26342;DHT22;14054;50.108;8.640;2022-07-29T13:22:38;39.40;41.80
26342;DHT22;14054;50.108;8.640;2022-07-29T13:25:04;39.60;41.00
26342;DHT22;14054;50.108;8.640;2022-07-29T13:27:33;39.00;41.30
26342;DHT22;14054;50.108;8.640;2022-07-29T13:30:01;38.00;42.00
26342;DHT22;14054;50.108;8.640;2022-07-29T13:32:29;34.70;46.60
26342;DHT22;14054;50.108;8.640;2022-07-29T13:34:56;33.50;81.00
26342;DHT22;14054;50.108;8.640;2022-07-29T13:39:49;35.30;44.80
26342;DHT22;14054;50.108;8.640;2022-07-29T13:42:15;35.90;44.80
26342;DHT22;14054;50.108;8.640;2022-07-29T13:44:40;37.20;70.70
26342;DHT22;14054;50.108;8.640;2022-07-29T13:47:07;37.30;46.00
26342;DHT22;14054;50.108;8.640;2022-07-29T13:49:33;37.90;52.60
26342;DHT22;14054;50.108;8.640;2022-07-29T13:51:59;38.10;45.10
26342;DHT22;14054;50.108;8.640;2022-07-29T13:54:24;37.30;43.10
26342;DHT22;14054;50.108;8.640;2022-07-29T13:56:50;36.70;43.60
26342;DHT22;14054;50.108;8.640;2022-07-29T13:59:16;36.30;44.50
26342;DHT22;14054;50.108;8.640;2022-07-29T14:01:42;34.20;46.90
26342;DHT22;14054;50.108;8.640;2022-07-29T14:04:08;33.40;84.60
26342;DHT22;14054;50.108;8.640;2022-07-29T14:06:35;32.80;85.90
26342;DHT22;14054;50.108;8.640;2022-07-29T14:09:03;32.10;86.50
26342;DHT22;14054;50.108;8.640;2022-07-29T14:11:31;31.90;70.50
26342;DHT22;14054;50.108;8.640;2022-07-29T14:13:57;31.60;69.30
26342;DHT22;14054;50.108;8.640;2022-07-29T14:16:22;31.60;69.90
26342;DHT22;14054;50.108;8.640;2022-07-29T14:26:06;30.20;94.50
26342;DHT22;14054;50.108;8.640;2022-07-29T14:33:26;29.30;57.50
26342;DHT22;14054;50.108;8.640;2022-07-29T14:35:51;29.20;58.60
26342;DHT22;14054;50.108;8.640;2022-07-29T14:38:17;29.80;60.40
26342;DHT22;14054;50.108;8.640;2022-07-29T14:40:42;29.60;61.40
26342;DHT22;14054;50.108;8.640;2022-07-29T14:43:08;29.30;63.10
26342;DHT22;14054;50.108;8.640;2022-07-29T14:45:33;29.20;64.20
26342;DHT22;14054;50.108;8.640;2022-07-29T14:47:59;29.20;64.60
26342;DHT22;14054;50.108;8.640;2022-07-29T14:50:25;29.10;65.10
26342;DHT22;14054;50.108;8.640;2022-07-29T14:52:51;28.90;66.80
26342;DHT22;14054;50.108;8.640;2022-07-29T14:55:17;28.60;67.50
26342;DHT22;14054;50.108;8.640;2022-07-29T14:57:42;28.30;67.00
26342;DHT22;14054;50.108;8.640;2022-07-29T15:00:09;27.90;67.40
26342;DHT22;14054;50.108;8.640;2022-07-29T15:02:35;27.90;68.00
26342;DHT22;14054;50.108;8.640;2022-07-29T15:05:00;28.10;69.20
26342;DHT22;14054;50.108;8.640;2022-07-29T15:07:27;28.10;70.10
26342;DHT22;14054;50.108;8.640;2022-07-29T15:09:52;28.20;70.40
26342;DHT22;14054;50.108;8.640;2022-07-29T15:12:18;27.80;71.70
26342;DHT22;14054;50.108;8.640;2022-07-29T15:14:43;27.80;72.60
26342;DHT22;14054;50.108;8.640;2022-07-29T15:17:09;27.90;72.60
26342;DHT22;14054;50.108;8.640;2022-07-29T15:19:34;28.20;71.10
26342;DHT22;14054;50.108;8.640;2022-07-29T15:22:00;28.50;69.30
26342;DHT22;14054;50.108;8.640;2022-07-29T15:24:25;28.70;68.30
26342;DHT22;14054;50.108;8.640;2022-07-29T15:26:51;28.80;69.50
26342;DHT22;14054;50.108;8.640;2022-07-29T15:29:16;28.90;68.30
26342;DHT22;14054;50.108;8.640;2022-07-29T15:31:43;28.90;67.70
26342;DHT22;14054;50.108;8.640;2022-07-29T15:34:08;28.90;67.90
26342;DHT22;14054;50.108;8.640;2022-07-29T15:36:35;28.70;66.70
26342;DHT22;14054;50.108;8.640;2022-07-29T15:39:00;28.50;67.10
26342;DHT22;14054;50.108;8.640;2022-07-29T15:41:26;28.50;66.80
26342;DHT22;14054;50.108;8.640;2022-07-29T15:43:52;28.50;65.50
26342;DHT22;14054;50.108;8.640;2022-07-29T15:46:18;28.20;64.70
26342;DHT22;14054;50.108;8.640;2022-07-29T15:49:04;28.00;64.20
26342;DHT22;14054;50.108;8.640;2022-07-29T15:51:30;27.90;63.40
26342;DHT22;14054;50.108;8.640;2022-07-29T15:53:55;28.10;63.30
26342;DHT22;14054;50.108;8.640;2022-07-29T15:56:22;28.30;63.20
26342;DHT22;14054;50.108;8.640;2022-07-29T15:58:48;28.50;62.30
26342;DHT22;14054;50.108;8.640;2022-07-29T16:01:13;28.50;61.10
26342;DHT22;14054;50.108;8.640;2022-07-29T16:03:39;28.50;59.70
26342;DHT22;14054;50.108;8.640;2022-07-29T16:06:04;28.30;59.90
26342;DHT22;14054;50.108;8.640;2022-07-29T16:08:30;28.20;60.10
26342;DHT22;14054;50.108;8.640;2022-07-29T16:10:55;28.00;61.00
26342;DHT22;14054;50.108;8.640;2022-07-29T16:13:21;27.90;61.10
26342;DHT22;14054;50.108;8.640;2022-07-29T16:15:47;27.80;61.30
26342;DHT22;14054;50.108;8.640;2022-07-29T16:18:12;27.70;60.60
26342;DHT22;14054;50.108;8.640;2022-07-29T16:20:39;27.60;60.50
26342;DHT22;14054;50.108;8.640;2022-07-29T16:23:05;27.50;60.70
26342;DHT22;14054;50.108;8.640;2022-07-29T16:25:34;27.40;60.50
26342;DHT22;14054;50.108;8.640;2022-07-29T16:27:59;27.50;60.80
26342;DHT22;14054;50.108;8.640;2022-07-29T16:30:25;27.50;61.20